createdAt,value
2019-03-27T00:01:21.315Z,6.31
2019-03-27T00:03:50.773Z,6.26
2019-03-27T00:06:20.116Z,6.22
2019-03-27T00:08:49.773Z,6.18
2019-03-27T00:11:19.486Z,6.34
2019-03-27T00:13:48.908Z,6.32
2019-03-27T00:16:18.346Z,6.28
2019-03-27T00:18:47.723Z,6.25
2019-03-27T00:21:17.228Z,6.29
2019-03-27T00:23:46.598Z,6.36
2019-03-27T00:26:16.119Z,6.18
2019-03-27T00:28:45.466Z,6.16
2019-03-27T00:31:14.824Z,6.26
2019-03-27T00:33:44.269Z,6.26
2019-03-27T00:36:13.624Z,6.26
2019-03-27T00:38:43.174Z,6.14
2019-03-27T00:41:12.559Z,6.23
2019-03-27T00:43:41.922Z,6.34
2019-03-27T00:46:11.383Z,6.13
2019-03-27T00:48:40.812Z,6.04
2019-03-27T00:51:10.316Z,6.17
2019-03-27T00:53:39.782Z,6.26
2019-03-27T00:56:09.412Z,6.26
2019-03-27T00:58:38.784Z,6.24
2019-03-27T01:01:13.606Z,6.06
2019-03-27T01:03:43.039Z,6.29
2019-03-27T01:16:54.334Z,6.17
2019-03-27T01:19:23.779Z,6.01
2019-03-27T01:21:53.143Z,6.22
2019-03-27T01:24:22.600Z,6.16
2019-03-27T01:26:52.222Z,6.11
2019-03-27T01:29:21.646Z,6.22
2019-03-27T01:31:51.203Z,6.08
2019-03-27T01:34:20.606Z,6.17
2019-03-27T01:36:50.342Z,6.07
2019-03-27T01:39:19.741Z,6.18
2019-03-27T01:41:49.345Z,6.16
2019-03-27T01:44:18.823Z,6.24
2019-03-27T01:46:48.210Z,6.22
2019-03-27T01:49:17.616Z,6.32
2019-03-27T01:51:47.006Z,6.33
2019-03-27T01:54:16.394Z,6.17
2019-03-27T01:56:45.922Z,6.30
2019-03-27T01:59:15.311Z,6.15
2019-03-27T02:01:44.711Z,6.14
2019-03-27T02:04:14.070Z,6.20
2019-03-27T02:06:43.640Z,6.24
2019-03-27T02:09:13.236Z,6.27
2019-03-27T02:11:42.750Z,6.34
2019-03-27T02:14:12.115Z,6.33
2019-03-27T02:16:41.521Z,6.30
2019-03-27T02:19:10.986Z,6.25
2019-03-27T02:21:40.431Z,6.36
2019-03-27T02:24:09.930Z,6.22
2019-03-27T02:26:39.302Z,6.23
2019-03-27T02:29:08.769Z,6.29
2019-03-27T02:31:38.179Z,6.30
2019-03-27T02:34:07.758Z,6.25
2019-03-27T02:36:37.206Z,6.22
2019-03-27T02:39:07.445Z,6.35
2019-03-27T02:41:36.889Z,6.34
2019-03-27T02:44:06.347Z,6.21
2019-03-27T02:46:35.749Z,6.23
2019-03-27T02:49:05.225Z,6.30
2019-03-27T02:51:34.581Z,6.20
2019-03-27T02:54:04.018Z,6.22
2019-03-27T02:56:33.386Z,6.15
2019-03-27T02:59:02.818Z,6.17
2019-03-27T03:01:32.226Z,6.17
2019-03-27T03:04:02.797Z,6.20
2019-03-27T03:06:32.285Z,6.14
2019-03-27T03:09:01.997Z,6.18
2019-03-27T03:11:31.493Z,6.33
2019-03-27T03:14:01.077Z,6.38
2019-03-27T03:16:41.904Z,6.32
2019-03-27T03:19:01.580Z,6.29
2019-03-27T03:21:31.050Z,6.23
2019-03-27T03:24:00.448Z,6.18
2019-03-27T03:26:30.096Z,6.26
2019-03-27T03:28:59.626Z,6.32
2019-03-27T03:31:29.016Z,6.26
2019-03-27T03:33:58.511Z,6.13
2019-03-27T03:36:28.040Z,6.13
2019-03-27T03:38:57.498Z,6.21
2019-03-27T03:41:26.999Z,6.21
2019-03-27T03:43:56.637Z,6.21
2019-03-27T03:46:26.059Z,6.18
2019-03-27T03:48:55.433Z,6.20
2019-03-27T03:51:25.454Z,6.15
2019-03-27T03:53:54.992Z,6.18
2019-03-27T03:56:25.036Z,6.16
2019-03-27T03:58:56.744Z,6.15
2019-03-27T04:01:28.877Z,6.11
2019-03-27T04:03:58.367Z,6.01
2019-03-27T04:06:27.883Z,6.12
2019-03-27T04:08:57.232Z,6.11
2019-03-27T04:11:26.744Z,6.23
2019-03-27T04:13:56.101Z,6.18
2019-03-27T04:16:25.502Z,6.26
2019-03-27T04:18:54.855Z,6.09
2019-03-27T04:21:27.113Z,6.11
2019-03-27T04:23:56.736Z,6.09
2019-03-27T04:26:26.130Z,6.07
2019-03-27T04:28:55.812Z,6.08
2019-03-27T04:31:25.197Z,6.20
2019-03-27T04:33:54.775Z,6.18
2019-03-27T04:36:24.273Z,6.11
2019-03-27T04:38:53.694Z,6.18
2019-03-27T04:41:23.103Z,6.22
2019-03-27T04:43:52.550Z,6.19
2019-03-27T04:46:22.020Z,6.28
2019-03-27T04:48:51.505Z,6.18
2019-03-27T04:51:21.053Z,6.20
2019-03-27T04:53:50.472Z,6.07
2019-03-27T04:56:19.913Z,6.09
2019-03-27T04:58:49.373Z,6.16
2019-03-27T05:01:19.283Z,6.18
2019-03-27T05:03:48.709Z,6.19
2019-03-27T05:06:18.374Z,6.17
2019-03-27T05:08:47.723Z,6.25
2019-03-27T05:11:17.096Z,6.30
2019-03-27T05:13:46.448Z,6.33
2019-03-27T05:16:15.939Z,6.15
2019-03-27T05:18:45.431Z,6.21
2019-03-27T05:21:14.824Z,6.24
2019-03-27T05:23:44.257Z,6.29
2019-03-27T05:26:13.633Z,6.29
2019-03-27T05:28:43.011Z,6.33
2019-03-27T05:31:12.438Z,6.34
2019-03-27T05:33:42.024Z,6.30
2019-03-27T05:36:11.424Z,6.29
2019-03-27T05:38:40.801Z,6.37
2019-03-27T05:41:10.151Z,6.26
2019-03-27T05:43:39.515Z,6.34
2019-03-27T05:46:08.921Z,6.34
2019-03-27T05:49:04.381Z,6.36
2019-03-27T05:51:35.765Z,6.38
2019-03-27T05:54:05.905Z,6.37
2019-03-27T05:56:35.395Z,6.48
2019-03-27T05:59:04.868Z,6.47
2019-03-27T06:01:34.311Z,6.51
2019-03-27T06:04:05.033Z,6.39
2019-03-27T06:06:34.477Z,6.49
2019-03-27T06:09:04.977Z,6.49
2019-03-27T06:11:34.961Z,6.43
2019-03-27T06:14:04.820Z,6.43
2019-03-27T06:16:34.841Z,6.53
2019-03-27T06:19:04.420Z,6.57
2019-03-27T06:21:34.106Z,6.60
2019-03-27T06:24:03.647Z,6.62
2019-03-27T06:26:33.035Z,6.61
2019-03-27T06:29:02.539Z,6.69
2019-03-27T06:31:32.189Z,6.66
2019-03-27T06:34:01.597Z,6.66
2019-03-27T06:36:31.031Z,6.77
2019-03-27T06:39:00.617Z,6.68
2019-03-27T06:41:30.137Z,6.71
2019-03-27T06:43:59.820Z,6.81
2019-03-27T06:46:29.555Z,6.82
2019-03-27T06:49:07.131Z,6.83
2019-03-27T06:51:40.246Z,6.90
2019-03-27T06:54:08.009Z,6.87
2019-03-27T06:56:41.021Z,6.86
2019-03-27T06:59:10.413Z,6.86
2019-03-27T07:01:39.966Z,6.94
2019-03-27T07:04:10.770Z,7.00
2019-03-27T07:06:41.423Z,6.91
2019-03-27T07:09:11.175Z,6.96
2019-03-27T07:11:40.781Z,6.94
2019-03-27T07:14:10.383Z,7.11
2019-03-27T07:16:39.939Z,7.16
2019-03-27T07:19:09.583Z,7.16
2019-03-27T07:21:39.043Z,7.16
2019-03-27T07:24:08.575Z,7.29
2019-03-27T07:26:37.990Z,7.19
2019-03-27T07:29:07.448Z,7.18
2019-03-27T07:31:36.819Z,7.21
2019-03-27T07:34:06.395Z,7.14
2019-03-27T07:36:35.876Z,7.25
2019-03-27T07:39:11.337Z,7.26
2019-03-27T07:41:38.749Z,7.29
2019-03-27T07:44:08.403Z,7.36
2019-03-27T07:46:37.978Z,7.38
2019-03-27T07:49:07.485Z,7.39
2019-03-27T07:51:36.983Z,7.40
2019-03-27T07:54:06.522Z,7.57
2019-03-27T07:56:35.946Z,7.65
2019-03-27T07:59:06.372Z,7.70
2019-03-27T08:01:35.768Z,7.87
2019-03-27T08:04:05.286Z,7.69
2019-03-27T08:06:35.129Z,7.85
2019-03-27T08:09:06.428Z,7.83
2019-03-27T08:11:36.035Z,7.79
2019-03-27T08:14:05.612Z,7.75
2019-03-27T08:16:35.427Z,7.75
2019-03-27T08:19:07.839Z,7.90
2019-03-27T08:21:36.506Z,7.88
2019-03-27T08:24:06.254Z,7.90
2019-03-27T08:26:35.862Z,7.86
2019-03-27T08:29:05.493Z,8.01
2019-03-27T08:31:35.005Z,7.99
2019-03-27T08:34:04.751Z,8.04
2019-03-27T08:36:34.110Z,8.04
2019-03-27T08:39:05.050Z,8.04
2019-03-27T08:41:35.058Z,8.14
2019-03-27T08:44:05.920Z,8.10
2019-03-27T08:46:35.687Z,8.16
2019-03-27T08:49:05.224Z,8.19
2019-03-27T08:51:34.885Z,8.27
2019-03-27T08:54:04.511Z,8.28
2019-03-27T08:56:34.032Z,8.19
2019-03-27T08:59:03.920Z,8.23
2019-03-27T09:01:33.459Z,8.22
2019-03-27T09:04:03.158Z,8.27
2019-03-27T09:06:34.110Z,8.34
2019-03-27T09:09:06.275Z,8.36
2019-03-27T09:11:35.670Z,8.37
2019-03-27T09:14:05.079Z,8.41
2019-03-27T09:16:34.498Z,8.48
2019-03-27T09:19:03.921Z,8.57
2019-03-27T09:21:33.367Z,8.62
2019-03-27T09:24:02.814Z,8.56
2019-03-27T09:26:32.178Z,8.61
2019-03-27T09:29:01.522Z,8.49
2019-03-27T09:31:43.627Z,8.49
2019-03-27T09:34:01.943Z,8.49
2019-03-27T09:36:31.431Z,8.46
2019-03-27T09:39:00.911Z,8.52
2019-03-27T09:41:30.224Z,8.43
2019-03-27T09:43:59.655Z,8.53
2019-03-27T09:46:30.242Z,8.47
2019-03-27T09:49:00.434Z,8.57
2019-03-27T09:51:35.749Z,8.61
2019-03-27T09:54:07.405Z,8.61
2019-03-27T09:56:40.703Z,8.60
2019-03-27T09:59:08.340Z,8.57
2019-03-27T10:01:37.823Z,8.54
2019-03-27T10:04:07.490Z,8.55
2019-03-27T10:06:36.964Z,8.58
2019-03-27T10:09:08.039Z,8.60
2019-03-27T10:11:37.454Z,8.60
2019-03-27T10:14:06.774Z,8.61
2019-03-27T10:16:36.273Z,8.66
2019-03-27T10:19:05.882Z,8.78
2019-03-27T10:21:35.231Z,8.81
2019-03-27T10:24:04.681Z,8.75
2019-03-27T10:26:34.085Z,8.68
2019-03-27T10:29:03.427Z,8.63
2019-03-27T10:31:32.816Z,8.63
2019-03-27T10:34:02.456Z,8.72
2019-03-27T10:36:31.837Z,8.71
2019-03-27T10:39:01.775Z,8.65
2019-03-27T10:41:31.276Z,8.70
2019-03-27T10:44:00.626Z,8.69
2019-03-27T10:46:30.273Z,8.68
2019-03-27T10:48:59.623Z,8.71
2019-03-27T10:51:29.125Z,8.58
2019-03-27T10:53:58.507Z,8.56
2019-03-27T10:56:28.330Z,8.50
2019-03-27T10:58:57.639Z,8.45
2019-03-27T11:01:27.032Z,8.49
2019-03-27T11:03:59.473Z,8.58
2019-03-27T11:06:28.961Z,8.44
2019-03-27T11:08:58.296Z,8.57
2019-03-27T11:11:27.756Z,8.40
2019-03-27T11:13:57.168Z,8.55
2019-03-27T11:16:26.648Z,8.46
2019-03-27T11:18:57.167Z,8.33
2019-03-27T11:21:26.584Z,8.42
2019-03-27T11:23:56.068Z,8.31
2019-03-27T11:26:25.948Z,8.24
2019-03-27T11:28:55.391Z,8.16
2019-03-27T11:31:32.636Z,8.41
2019-03-27T11:34:01.483Z,8.33
2019-03-27T11:36:31.355Z,8.51
2019-03-27T11:39:00.704Z,8.37
2019-03-27T11:41:30.378Z,8.39
2019-03-27T11:43:59.909Z,8.37
2019-03-27T11:46:32.068Z,8.34
2019-03-27T11:49:01.366Z,8.14
2019-03-27T11:51:30.852Z,8.20
2019-03-27T11:54:00.386Z,8.15
2019-03-27T11:56:29.926Z,8.18
2019-03-27T11:58:59.751Z,8.25
2019-03-27T12:01:40.658Z,8.26
2019-03-27T12:04:00.744Z,7.96
2019-03-27T12:06:30.280Z,8.15
2019-03-27T12:08:59.889Z,8.36
2019-03-27T12:11:29.316Z,8.32
2019-03-27T12:13:58.882Z,8.27
2019-03-27T12:16:28.326Z,8.20
2019-03-27T12:18:57.833Z,8.12
2019-03-27T12:21:27.450Z,8.32
2019-03-27T12:24:08.995Z,8.16
2019-03-27T12:26:38.630Z,8.31
2019-03-27T12:29:08.396Z,8.18
2019-03-27T12:31:37.743Z,8.24
2019-03-27T12:34:09.210Z,8.25
2019-03-27T12:36:38.657Z,8.33
2019-03-27T12:39:09.351Z,8.47
2019-03-27T12:41:38.810Z,8.26
2019-03-27T12:44:08.214Z,8.32
2019-03-27T12:46:37.653Z,8.29
2019-03-27T12:49:07.095Z,8.30
2019-03-27T12:51:36.774Z,8.31
2019-03-27T12:54:06.286Z,8.34
2019-03-27T12:56:35.946Z,8.24
2019-03-27T12:59:05.426Z,8.17
2019-03-27T13:01:34.949Z,8.31
2019-03-27T13:04:04.757Z,8.29
2019-03-27T13:06:34.139Z,8.31
2019-03-27T13:09:06.688Z,8.32
2019-03-27T13:11:36.867Z,8.31
2019-03-27T13:14:06.569Z,8.38
2019-03-27T13:16:36.050Z,8.33
2019-03-27T13:19:05.594Z,8.36
2019-03-27T13:21:35.043Z,8.31
2019-03-27T13:24:05.280Z,8.45
2019-03-27T13:26:34.718Z,8.36
2019-03-27T13:29:04.279Z,8.33
2019-03-27T13:31:33.795Z,8.32
2019-03-27T13:34:03.180Z,8.41
2019-03-27T13:36:33.454Z,8.34
2019-03-27T13:39:02.914Z,8.39
2019-03-27T13:41:32.305Z,8.39
2019-03-27T13:44:02.233Z,8.40
2019-03-27T13:46:31.799Z,8.46
2019-03-27T13:49:01.284Z,8.32
2019-03-27T13:51:40.300Z,8.43
2019-03-27T13:54:01.909Z,8.36
2019-03-27T13:56:31.525Z,8.46
2019-03-27T13:59:01.037Z,8.36
2019-03-27T14:01:30.498Z,8.40
2019-03-27T14:03:59.966Z,8.37
2019-03-27T14:06:29.436Z,8.37
2019-03-27T14:09:01.314Z,8.40
2019-03-27T14:11:30.711Z,8.35
2019-03-27T14:14:10.577Z,8.34
2019-03-27T14:16:34.477Z,8.45
2019-03-27T14:19:04.028Z,8.42
2019-03-27T14:21:33.634Z,8.52
2019-03-27T14:24:03.030Z,8.45
2019-03-27T14:26:44.280Z,8.52
2019-03-27T14:29:03.674Z,8.48
2019-03-27T14:31:33.769Z,8.55
2019-03-27T14:34:03.179Z,8.53
2019-03-27T14:36:32.604Z,8.63
2019-03-27T14:39:03.864Z,8.58
2019-03-27T14:41:33.789Z,8.58
2019-03-27T14:44:03.340Z,8.58
2019-03-27T14:46:32.859Z,8.54
2019-03-27T14:49:02.307Z,8.56
2019-03-27T14:51:31.864Z,8.59
2019-03-27T14:54:01.597Z,8.49
2019-03-27T14:56:31.135Z,8.51
2019-03-27T14:59:00.670Z,8.53
2019-03-27T15:01:30.346Z,8.50
2019-03-27T15:03:59.712Z,8.49
2019-03-27T15:06:29.184Z,8.50
2019-03-27T15:08:58.566Z,8.53
2019-03-27T15:11:28.157Z,8.48
2019-03-27T15:13:57.681Z,8.41
2019-03-27T15:16:27.297Z,8.41
2019-03-27T15:18:56.881Z,8.43
2019-03-27T15:21:26.567Z,8.46
2019-03-27T15:23:56.112Z,8.42
2019-03-27T15:26:25.864Z,8.43
2019-03-27T15:28:55.517Z,8.50
2019-03-27T15:31:24.861Z,8.42
2019-03-27T15:33:54.292Z,8.48
2019-03-27T15:36:23.856Z,8.43
2019-03-27T15:38:53.248Z,8.49
2019-03-27T15:41:22.766Z,8.38
2019-03-27T15:43:52.216Z,8.45
2019-03-27T15:46:21.622Z,8.48
2019-03-27T15:48:50.977Z,8.48
2019-03-27T15:51:20.340Z,8.48
2019-03-27T15:53:49.762Z,8.50
2019-03-27T15:56:19.275Z,8.48
2019-03-27T15:58:48.760Z,8.50
2019-03-27T16:01:18.254Z,8.48
2019-03-27T16:03:47.614Z,8.46
2019-03-27T16:06:17.102Z,8.41
2019-03-27T16:08:46.459Z,8.43
2019-03-27T16:11:15.940Z,8.42
2019-03-27T16:13:45.349Z,8.41
2019-03-27T16:16:14.818Z,8.35
2019-03-27T16:18:44.268Z,8.45
2019-03-27T16:21:13.704Z,8.42
2019-03-27T16:23:43.156Z,8.40
2019-03-27T16:26:12.529Z,8.47
2019-03-27T16:28:42.015Z,8.44
2019-03-27T16:31:11.615Z,8.43
2019-03-27T16:33:41.757Z,8.47
2019-03-27T16:36:11.228Z,8.49
2019-03-27T16:38:40.590Z,8.50
2019-03-27T16:41:10.008Z,8.52
2019-03-27T16:43:44.393Z,8.48
2019-03-27T16:46:13.956Z,8.46
2019-03-27T16:48:43.527Z,8.47
2019-03-27T16:51:30.847Z,8.43
2019-03-27T16:54:06.796Z,8.48
2019-03-27T16:56:36.265Z,8.44
2019-03-27T16:59:06.548Z,8.40
2019-03-27T17:01:35.887Z,8.47
2019-03-27T17:04:05.406Z,8.38
2019-03-27T17:06:34.826Z,8.38
2019-03-27T17:09:05.526Z,8.45
2019-03-27T17:11:34.943Z,8.36
2019-03-27T17:14:04.374Z,8.35
2019-03-27T17:16:34.485Z,8.41
2019-03-27T17:19:04.460Z,8.39
2019-03-27T17:21:34.027Z,8.39
2019-03-27T17:24:03.455Z,8.37
2019-03-27T17:26:35.633Z,8.44
2019-03-27T17:29:05.117Z,8.39
2019-03-27T17:31:34.528Z,8.39
2019-03-27T17:34:04.237Z,8.38
2019-03-27T17:36:33.878Z,8.35
2019-03-27T17:39:04.370Z,8.37
2019-03-27T17:41:33.875Z,8.38
2019-03-27T17:44:03.385Z,8.39
2019-03-27T17:50:57.556Z,8.36
2019-03-27T17:53:31.827Z,8.40
2019-03-27T18:02:08.164Z,8.35
2019-03-27T18:04:37.607Z,8.37
2019-03-27T18:07:07.075Z,8.34
2019-03-27T18:09:36.533Z,8.33
2019-03-27T18:12:06.307Z,8.36
2019-03-27T18:14:35.791Z,8.35
2019-03-27T18:17:05.222Z,8.35
2019-03-27T18:19:34.653Z,8.39
2019-03-27T18:22:07.827Z,8.36
2019-03-27T18:24:35.467Z,8.32
2019-03-27T18:27:05.521Z,8.33
2019-03-27T18:37:05.336Z,8.36
2019-03-27T18:39:37.128Z,8.26
2019-03-27T18:42:06.886Z,8.34
2019-03-27T18:44:36.442Z,8.32
2019-03-27T18:47:06.332Z,8.34
2019-03-27T18:49:36.118Z,8.32
2019-03-27T18:52:06.003Z,8.34
2019-03-27T18:54:35.800Z,8.35
2019-03-27T18:57:05.315Z,8.32
2019-03-27T18:59:34.773Z,8.32
2019-03-27T19:02:04.501Z,8.32
2019-03-27T19:04:33.849Z,8.30
2019-03-27T19:07:03.308Z,8.36
2019-03-27T19:09:32.884Z,8.30
2019-03-27T19:12:02.306Z,8.26
2019-03-27T19:14:32.081Z,8.26
2019-03-27T19:17:04.052Z,8.27
2019-03-27T19:19:34.549Z,8.22
2019-03-27T19:22:06.465Z,8.13
2019-03-27T19:24:36.106Z,8.21
2019-03-27T19:27:07.155Z,8.14
2019-03-27T19:29:37.908Z,8.21
2019-03-27T19:32:07.478Z,8.16
2019-03-27T19:34:37.940Z,8.18
2019-03-27T19:37:07.557Z,8.15
2019-03-27T19:39:38.952Z,8.13
2019-03-27T19:42:08.126Z,8.07
2019-03-27T19:44:37.777Z,7.97
2019-03-27T19:47:07.493Z,8.05
2019-03-27T19:49:36.943Z,7.98
2019-03-27T19:52:06.324Z,8.02
2019-03-27T19:54:35.851Z,7.99
2019-03-27T19:57:05.358Z,7.95
2019-03-27T19:59:34.792Z,7.98
2019-03-27T20:02:04.320Z,7.87
2019-03-27T20:04:34.528Z,7.83
2019-03-27T20:07:04.313Z,7.88
2019-03-27T20:09:34.451Z,7.86
2019-03-27T20:12:04.969Z,7.90
2019-03-27T20:14:34.592Z,7.85
2019-03-27T20:17:04.320Z,7.86
2019-03-27T20:19:34.251Z,7.84
2019-03-27T20:22:03.918Z,7.93
2019-03-27T20:24:40.931Z,7.88
2019-03-27T20:27:04.881Z,7.91
2019-03-27T20:29:34.406Z,7.82
2019-03-27T20:32:04.002Z,7.89
2019-03-27T20:34:33.406Z,7.83
2019-03-27T20:37:02.976Z,7.82
2019-03-27T20:39:32.644Z,7.71
2019-03-27T20:42:02.242Z,7.76
2019-03-27T20:44:31.729Z,7.85
2019-03-27T20:47:01.318Z,7.75
2019-03-27T20:49:30.789Z,7.71
2019-03-27T20:52:01.288Z,7.75
2019-03-27T20:54:30.646Z,7.84
2019-03-27T20:57:00.171Z,7.74
2019-03-27T20:59:29.679Z,7.76
2019-03-27T21:01:59.184Z,7.81
2019-03-27T21:04:28.846Z,7.84
2019-03-27T21:06:58.799Z,7.79
2019-03-27T21:09:28.293Z,7.84
2019-03-27T21:11:57.720Z,7.76
2019-03-27T21:14:27.144Z,7.84
2019-03-27T21:17:02.809Z,7.80
2019-03-27T21:19:32.188Z,7.78
2019-03-27T21:22:01.676Z,7.78
2019-03-27T21:24:31.453Z,7.62
2019-03-27T21:27:02.660Z,7.77
2019-03-27T21:29:32.260Z,7.78
2019-03-27T21:32:01.951Z,7.76
2019-03-27T21:34:31.447Z,7.72
2019-03-27T21:37:00.922Z,7.76
2019-03-27T21:39:30.273Z,7.81
2019-03-27T21:41:59.843Z,7.75
2019-03-27T21:44:29.298Z,7.67
2019-03-27T21:46:58.783Z,7.70
2019-03-27T21:49:28.176Z,7.71
2019-03-27T21:51:57.754Z,7.68
2019-03-27T21:54:27.124Z,7.58
2019-03-27T21:56:56.670Z,7.71
2019-03-27T21:59:26.072Z,7.74
2019-03-27T22:01:56.207Z,7.70
2019-03-27T22:04:28.894Z,7.68
2019-03-27T22:06:58.316Z,7.58
2019-03-27T22:09:28.170Z,7.64
2019-03-27T22:11:57.681Z,7.60
2019-03-27T22:14:27.083Z,7.60
2019-03-27T22:16:58.161Z,7.67
2019-03-27T22:19:27.576Z,7.64
2019-03-27T22:21:56.968Z,7.67
2019-03-27T22:24:26.708Z,7.58
2019-03-27T22:26:56.543Z,7.61
2019-03-27T22:29:26.075Z,7.68
2019-03-27T22:31:55.566Z,7.57
2019-03-27T22:34:25.114Z,7.59
2019-03-27T22:36:55.315Z,7.63
2019-03-27T22:39:25.088Z,7.59
2019-03-27T22:41:54.588Z,7.66
2019-03-27T22:44:23.945Z,7.61
2019-03-27T22:46:53.466Z,7.56
2019-03-27T22:49:22.884Z,7.64
2019-03-27T22:51:52.411Z,7.56
2019-03-27T22:54:21.871Z,7.61
2019-03-27T22:56:51.357Z,7.54
2019-03-27T22:59:20.817Z,7.57
2019-03-27T23:01:50.417Z,7.51
2019-03-27T23:04:19.957Z,7.54
2019-03-27T23:06:49.398Z,7.52
2019-03-27T23:09:18.859Z,7.50
2019-03-27T23:11:48.620Z,7.49
2019-03-27T23:14:18.056Z,7.52
2019-03-27T23:16:47.551Z,7.52
2019-03-27T23:19:17.027Z,7.46
2019-03-27T23:21:46.559Z,7.48
2019-03-27T23:24:16.052Z,7.41
2019-03-27T23:26:45.742Z,7.43
2019-03-27T23:29:15.225Z,7.54
2019-03-27T23:31:44.722Z,7.54
2019-03-27T23:34:14.494Z,7.50
2019-03-27T23:36:44.100Z,7.47
2019-03-27T23:39:13.572Z,7.53
2019-03-27T23:41:43.015Z,7.50
2019-03-27T23:44:12.480Z,7.55
2019-03-27T23:46:42.020Z,7.55
2019-03-27T23:49:11.476Z,7.48
2019-03-27T23:51:40.893Z,7.52
2019-03-27T23:54:10.280Z,7.58
2019-03-27T23:56:39.712Z,7.60
2019-03-27T23:59:09.813Z,7.45
